Aviation Digital Data Service (ADDS)

Output produced by TAFs form (1130 UTC 19 January 2018)
found at http://www.aviationweather.gov/adds/tafs/
 
RJGG 191100Z 28005KT 9999 FEW040 08/01 Q1018 NOSIG
TAF RJGG 191110Z 1912/2018 32008KT 9999 FEW030